Time;durP1;ratioP1;P1;durP2;ratioP2;P2;SDS_P1;SDS_P2;PMS_P1;PMS_P2;Temp;Humidity;BMP_temperature;BMP_pressure;BME280_temperature;BME280_humidity;BME280_pressure;Samples;Min_cycle;Max_cycle;Signal;HPM_P1;HPM_P2
2023/04/12 00:01:29;;;;;;;4.97;2.10;;;11.40;1.00;;;;;;4987838;28;20187;-74
2023/04/12 00:03:55;;;;;;;9.50;2.63;;;11.90;1.00;;;;;;4990492;28;20185;-73
2023/04/12 00:06:26;;;;;;;4.40;2.50;;;11.30;1.00;;;;;;4987120;28;20179;-74
2023/04/12 00:08:52;;;;;;;5.73;2.40;;;11.30;1.00;;;;;;4987267;28;20684;-74
2023/04/12 00:11:17;;;;;;;3.80;2.20;;;11.50;1.00;;;;;;4986039;28;20442;-74
2023/04/12 00:13:43;;;;;;;9.23;3.10;;;11.40;1.00;;;;;;4988751;28;20657;-74
2023/04/12 00:16:08;;;;;;;32.73;15.47;;;11.40;1.00;;;;;;4997636;28;20294;-74
2023/04/12 00:18:34;;;;;;;32.33;14.57;;;11.30;1.00;;;;;;5007974;28;20209;-74
2023/04/12 00:21:00;;;;;;;9.73;3.30;;;11.30;1.00;;;;;;4991635;28;20207;-74
2023/04/12 00:23:25;;;;;;;4.83;2.40;;;11.30;1.00;;;;;;4992535;28;20179;-74
2023/04/12 00:25:51;;;;;;;3.53;2.40;;;11.30;1.00;;;;;;4997087;28;20178;-74
2023/04/12 00:28:17;;;;;;;4.40;2.70;;;11.20;1.00;;;;;;4990678;28;20237;-74
2023/04/12 00:30:42;;;;;;;5.63;2.37;;;11.10;1.00;;;;;;4990950;28;20556;-74
2023/04/12 00:33:08;;;;;;;4.40;2.60;;;11.10;1.00;;;;;;4990323;28;20184;-74
2023/04/12 00:35:33;;;;;;;5.90;2.10;;;11.30;1.00;;;;;;4994014;28;20615;-74
2023/04/12 00:38:09;;;;;;;5.80;2.73;;;11.00;1.00;;;;;;4992658;28;20187;-74
2023/04/12 00:40:34;;;;;;;5.20;2.60;;;10.90;1.00;;;;;;4991800;28;20277;-74
2023/04/12 00:43:00;;;;;;;10.60;2.30;;;10.80;1.00;;;;;;4992342;28;20983;-74
2023/04/12 00:45:26;;;;;;;5.70;2.27;;;10.70;1.00;;;;;;4991097;28;20190;-74
2023/04/12 00:47:52;;;;;;;8.20;2.20;;;10.70;1.00;;;;;;4998891;28;20179;-74
2023/04/12 00:50:17;;;;;;;5.97;2.30;;;10.70;1.00;;;;;;4990247;28;20206;-75
2023/04/12 00:52:43;;;;;;;3.50;2.07;;;10.60;1.00;;;;;;4991298;28;20210;-74
2023/04/12 00:55:09;;;;;;;7.57;2.30;;;10.60;1.00;;;;;;4990225;28;20592;-74
2023/04/12 00:57:37;;;;;;;5.53;2.47;;;10.50;1.00;;;;;;4996236;28;20236;-74
2023/04/12 01:00:07;;;;;;;8.97;2.93;;;10.40;1.00;;;;;;4989853;28;20238;-74
2023/04/12 01:02:34;;;;;;;5.83;2.63;;;10.40;1.00;;;;;;4998867;28;20521;-74
2023/04/12 01:05:00;;;;;;;4.90;2.43;;;10.40;1.00;;;;;;4988133;28;20979;-74
2023/04/12 01:07:50;;;;;;;6.47;2.30;;;10.60;1.00;;;;;;4999262;28;21069;-74
2023/04/12 01:10:22;;;;;;;3.37;2.10;;;10.50;1.00;;;;;;4992437;28;20458;-74
2023/04/12 01:13:20;;;;;;;7.60;2.50;;;10.20;1.00;;;;;;5006472;28;20477;-74
2023/04/12 01:16:29;;;;;;;9.57;2.67;;;10.00;1.00;;;;;;4943743;28;20469;-74
2023/04/12 01:19:02;;;;;;;7.90;2.67;;;9.80;1.00;;;;;;4959410;28;20438;-74
2023/04/12 01:21:44;;;;;;;6.13;2.00;;;9.80;1.00;;;;;;4989507;28;20441;-74
2023/04/12 01:24:42;;;;;;;3.90;2.13;;;9.60;1.00;;;;;;5005543;28;20430;-74
2023/04/12 01:27:32;;;;;;;5.10;2.30;;;9.40;1.00;;;;;;4989478;28;20972;-74
2023/04/12 01:30:00;;;;;;;5.40;2.53;;;9.30;1.00;;;;;;4995852;28;20561;-74
2023/04/12 01:32:26;;;;;;;4.93;2.27;;;9.60;1.00;;;;;;4989453;28;20860;-77
2023/04/12 01:34:53;;;;;;;3.93;2.40;;;9.30;1.00;;;;;;4989993;28;20466;-76
2023/04/12 01:37:20;;;;;;;7.13;2.50;;;9.30;1.00;;;;;;4989810;28;20450;-75
2023/04/12 01:39:46;;;;;;;9.23;2.63;;;9.40;1.00;;;;;;4988241;28;20516;-74
2023/04/12 01:42:17;;;;;;;5.10;2.80;;;9.40;1.00;;;;;;5001982;28;20840;-75
2023/04/12 01:44:42;;;;;;;9.97;2.60;;;9.30;1.00;;;;;;4994546;28;20628;-74
2023/04/12 01:47:08;;;;;;;7.67;2.97;;;9.40;1.00;;;;;;4995561;28;20438;-75
2023/04/12 01:49:46;;;;;;;5.33;2.63;;;9.20;1.00;;;;;;4985051;28;20221;-76
2023/04/12 01:52:17;;;;;;;8.37;3.27;;;9.20;1.00;;;;;;4997207;28;20222;-75
2023/04/12 01:54:44;;;;;;;5.63;2.67;;;9.20;1.00;;;;;;5001546;28;20472;-75
2023/04/12 01:57:11;;;;;;;4.87;2.53;;;9.20;1.00;;;;;;4988343;28;20499;-76
2023/04/12 01:59:44;;;;;;;5.53;2.73;;;9.20;1.00;;;;;;4990063;28;20457;-76
2023/04/12 02:02:11;;;;;;;5.70;2.80;;;9.20;1.00;;;;;;4991023;28;20511;-75
2023/04/12 02:04:38;;;;;;;7.20;2.87;;;9.20;1.00;;;;;;4995683;28;20777;-75
2023/04/12 02:07:04;;;;;;;11.07;3.10;;;9.20;1.00;;;;;;4990695;28;20462;-76
2023/04/12 02:09:34;;;;;;;7.33;2.97;;;9.10;1.00;;;;;;4989159;28;20489;-75
2023/04/12 02:12:00;;;;;;;6.87;3.30;;;9.20;1.00;;;;;;4990547;28;20207;-75
2023/04/12 02:14:26;;;;;;;8.53;2.87;;;9.30;1.00;;;;;;4988659;28;20497;-75
2023/04/12 02:16:54;;;;;;;6.80;3.00;;;10.20;1.00;;;;;;4996053;28;20277;-76
2023/04/12 02:19:20;;;;;;;6.07;3.00;;;9.30;1.00;;;;;;4993986;28;20233;-75
2023/04/12 02:21:45;;;;;;;6.20;2.80;;;9.30;1.00;;;;;;4992701;28;20459;-75
2023/04/12 02:24:11;;;;;;;8.40;3.60;;;9.20;1.00;;;;;;4987524;28;20205;-75
2023/04/12 02:26:37;;;;;;;7.53;3.30;;;9.20;1.00;;;;;;4988265;28;20617;-75
2023/04/12 02:29:06;;;;;;;7.33;3.30;;;9.20;1.00;;;;;;4988562;28;20452;-75
2023/04/12 02:31:33;;;;;;;6.40;3.00;;;9.20;1.00;;;;;;4990543;28;20529;-75
2023/04/12 02:33:58;;;;;;;5.13;3.00;;;9.10;1.00;;;;;;4987423;28;20793;-74
2023/04/12 02:36:24;;;;;;;9.17;3.20;;;9.10;1.00;;;;;;4987956;28;20461;-75
2023/04/12 02:38:50;;;;;;;9.40;3.03;;;9.10;1.00;;;;;;4989008;28;20175;-75
2023/04/12 02:41:17;;;;;;;7.10;3.10;;;9.10;1.00;;;;;;4982380;28;20180;-76
2023/04/12 02:43:43;;;;;;;7.47;2.97;;;9.10;1.00;;;;;;4988263;28;20932;-76
2023/04/12 02:46:08;;;;;;;8.27;2.90;;;9.10;1.00;;;;;;4988724;28;20457;-76
2023/04/12 02:48:34;;;;;;;6.70;2.70;;;9.20;1.00;;;;;;4990264;28;20232;-76
2023/04/12 02:51:00;;;;;;;9.17;2.70;;;9.10;1.00;;;;;;4986690;28;20708;-75
2023/04/12 02:53:25;;;;;;;8.63;2.80;;;9.10;1.00;;;;;;4990233;28;20190;-75
2023/04/12 02:55:51;;;;;;;6.20;2.83;;;9.00;1.00;;;;;;4987004;28;20661;-75
2023/04/12 02:58:17;;;;;;;4.37;2.60;;;9.10;1.00;;;;;;4987914;28;20198;-75
2023/04/12 03:00:44;;;;;;;9.70;2.53;;;9.00;1.00;;;;;;4987090;28;20245;-75
2023/04/12 03:03:10;;;;;;;6.47;2.93;;;9.00;1.00;;;;;;4986684;28;20583;-75
2023/04/12 03:05:36;;;;;;;8.40;3.10;;;9.00;1.00;;;;;;4988158;28;20985;-75
2023/04/12 03:08:02;;;;;;;6.07;2.43;;;8.90;1.20;;;;;;4988760;28;20267;-75
2023/04/12 03:10:28;;;;;;;11.73;3.50;;;8.90;1.00;;;;;;4987451;28;20549;-75
2023/04/12 03:12:53;;;;;;;6.33;2.60;;;8.90;1.00;;;;;;4986858;28;20557;-75
2023/04/12 03:15:22;;;;;;;6.50;2.60;;;8.90;1.00;;;;;;4986670;28;20290;-75
2023/04/12 03:17:47;;;;;;;5.70;2.17;;;8.90;1.00;;;;;;4988078;28;20213;-75
2023/04/12 03:20:13;;;;;;;6.27;2.77;;;8.90;1.00;;;;;;4986085;28;20556;-75
2023/04/12 03:22:39;;;;;;;5.90;2.67;;;8.90;1.00;;;;;;4989680;28;20187;-76
2023/04/12 03:25:05;;;;;;;7.03;2.50;;;8.90;1.00;;;;;;4983127;28;20194;-75
2023/04/12 03:27:30;;;;;;;4.80;2.20;;;8.90;1.00;;;;;;4987044;28;20179;-75
2023/04/12 03:29:56;;;;;;;3.87;2.50;;;9.00;1.00;;;;;;4987489;28;20214;-75
2023/04/12 03:32:22;;;;;;;4.33;2.50;;;8.90;1.00;;;;;;4987198;28;20186;-76
2023/04/12 03:34:48;;;;;;;4.80;2.43;;;9.40;1.00;;;;;;4987270;28;20207;-75
2023/04/12 03:37:13;;;;;;;2.83;2.40;;;8.90;1.00;;;;;;4991478;28;20840;-75
2023/04/12 03:39:39;;;;;;;3.47;2.10;;;8.90;1.00;;;;;;4985913;28;20203;-75
2023/04/12 03:42:05;;;;;;;8.30;2.77;;;8.90;1.00;;;;;;4986881;28;20242;-75
2023/04/12 03:44:31;;;;;;;2.80;2.20;;;8.80;1.00;;;;;;4986715;28;20218;-75
2023/04/12 03:46:57;;;;;;;4.27;2.30;;;8.90;1.00;;;;;;4995107;28;20182;-75
2023/04/12 03:49:22;;;;;;;8.03;2.53;;;8.90;1.00;;;;;;4994311;28;20450;-75
2023/04/12 03:51:49;;;;;;;5.73;3.10;;;9.00;2.30;;;;;;4991781;28;20258;-75
2023/04/12 03:54:15;;;;;;;5.13;3.10;;;9.20;1.00;;;;;;4996999;28;20182;-75
2023/04/12 03:56:41;;;;;;;7.03;4.13;;;9.00;1.00;;;;;;4990424;28;20477;-75
2023/04/12 03:59:07;;;;;;;10.03;3.80;;;9.00;1.00;;;;;;4991109;28;20202;-75
2023/04/12 04:01:33;;;;;;;5.67;2.90;;;9.00;1.00;;;;;;4990318;28;20265;-75
2023/04/12 04:03:59;;;;;;;7.27;2.67;;;9.00;1.00;;;;;;4991268;28;20488;-74
2023/04/12 04:06:25;;;;;;;3.17;2.23;;;9.30;1.40;;;;;;4997280;28;20446;-75
2023/04/12 04:08:51;;;;;;;5.77;2.70;;;9.00;1.00;;;;;;4991381;28;20191;-75
2023/04/12 04:11:16;;;;;;;4.60;2.30;;;9.00;1.00;;;;;;4989252;28;20183;-75
2023/04/12 04:13:42;;;;;;;4.27;2.30;;;9.00;1.00;;;;;;4991183;28;20179;-75
2023/04/12 04:16:09;;;;;;;3.90;2.67;;;9.40;1.00;;;;;;4989861;28;20202;-75
2023/04/12 04:18:35;;;;;;;7.10;2.57;;;9.00;1.00;;;;;;4990286;28;20179;-75
2023/04/12 04:21:01;;;;;;;3.10;2.33;;;9.00;1.00;;;;;;4994600;28;20543;-73
2023/04/12 04:23:27;;;;;;;6.03;2.90;;;8.90;1.00;;;;;;4992289;28;20613;-75
2023/04/12 04:25:54;;;;;;;3.00;2.30;;;8.90;1.00;;;;;;4994639;28;20282;-75
2023/04/12 04:28:19;;;;;;;5.03;2.47;;;9.00;3.40;;;;;;4991495;28;21036;-75
2023/04/12 04:30:45;;;;;;;4.90;2.63;;;8.90;2.60;;;;;;4989775;28;20470;-75
2023/04/12 04:33:17;;;;;;;5.17;2.57;;;8.90;7.30;;;;;;4989303;28;20187;-75
2023/04/12 04:35:43;;;;;;;4.87;2.67;;;9.30;8.20;;;;;;4985325;28;20554;-75
2023/04/12 04:38:09;;;;;;;6.63;2.90;;;8.80;4.90;;;;;;4989461;28;20441;-75
2023/04/12 04:40:37;;;;;;;9.03;3.93;;;8.90;3.30;;;;;;4990410;28;20221;-75
2023/04/12 04:43:02;;;;;;;5.40;3.03;;;8.90;6.10;;;;;;4993661;28;20437;-75
2023/04/12 04:45:29;;;;;;;5.70;2.90;;;8.90;6.20;;;;;;4990747;28;20434;-75
2023/04/12 04:47:55;;;;;;;5.60;3.00;;;8.90;4.50;;;;;;4989425;28;20314;-75
2023/04/12 04:50:23;;;;;;;5.10;3.20;;;8.90;3.70;;;;;;4989797;28;20470;-75
2023/04/12 04:52:52;;;;;;;5.73;2.77;;;8.90;4.80;;;;;;4991011;28;20438;-75
2023/04/12 04:55:20;;;;;;;5.17;2.57;;;9.00;7.00;;;;;;4989268;28;20480;-75
2023/04/12 04:57:46;;;;;;;7.30;3.13;;;9.00;7.10;;;;;;4990200;28;20450;-75
2023/04/12 05:00:12;;;;;;;6.47;3.00;;;9.00;6.10;;;;;;4988425;28;20492;-76
2023/04/12 05:02:41;;;;;;;5.43;2.87;;;9.00;7.30;;;;;;4989377;28;20438;-75
2023/04/12 05:05:07;;;;;;;6.50;3.20;;;;;;;;;;4988617;28;20434;-75
2023/04/12 05:07:33;;;;;;;5.83;3.20;;;9.00;7.30;;;;;;4990358;28;20613;-75
2023/04/12 05:09:59;;;;;;;5.73;2.50;;;9.00;5.40;;;;;;4989367;28;20557;-75
2023/04/12 05:12:24;;;;;;;3.70;2.40;;;9.00;7.80;;;;;;4989529;28;20199;-75
2023/04/12 05:14:50;;;;;;;10.40;4.63;;;9.00;7.30;;;;;;4989091;28;20187;-75
2023/04/12 05:17:15;;;;;;;6.30;3.33;;;9.00;6.60;;;;;;4988473;28;20214;-75
2023/04/12 05:19:42;;;;;;;8.20;3.23;;;9.40;6.20;;;;;;4989418;28;20210;-75
2023/04/12 05:22:08;;;;;;;5.20;2.97;;;9.50;6.50;;;;;;4992373;28;20665;-76
2023/04/12 05:24:33;;;;;;;5.80;2.90;;;9.10;6.20;;;;;;4989925;28;20440;-75
2023/04/12 05:26:59;;;;;;;5.50;3.10;;;9.10;3.80;;;;;;4989206;28;20186;-75
2023/04/12 05:31:52;;;;;;;6.00;3.00;;;9.00;2.20;;;;;;4984872;28;20189;-73
2023/04/12 05:34:18;;;;;;;4.60;3.20;;;9.20;4.70;;;;;;4989189;28;20944;-72
2023/04/12 05:36:43;;;;;;;7.80;3.50;;;9.40;4.70;;;;;;4990650;28;20303;-72
2023/04/12 05:39:09;;;;;;;5.90;3.47;;;9.10;1.30;;;;;;5030733;22;20236;-72
2023/04/12 05:41:35;;;;;;;5.83;3.43;;;9.10;3.00;;;;;;5021593;28;20229;-72
2023/04/12 05:44:02;;;;;;;5.20;2.90;;;9.10;5.00;;;;;;5037818;28;20179;-73
2023/04/12 05:46:28;;;;;;;7.93;3.50;;;9.10;3.40;;;;;;5021871;28;20186;-73
2023/04/12 05:48:54;;;;;;;5.40;3.40;;;9.10;3.20;;;;;;5033736;28;20437;-72
2023/04/12 05:51:20;;;;;;;5.97;3.20;;;9.10;1.80;;;;;;5012556;28;20233;-73
2023/04/12 05:53:45;;;;;;;5.57;3.13;;;9.10;2.30;;;;;;5019765;28;20476;-73
2023/04/12 05:56:11;;;;;;;6.50;3.70;;;;;;;;;;5016352;28;20217;-72
2023/04/12 05:58:37;;;;;;;4.60;3.20;;;9.20;4.00;;;;;;5024360;28;20264;-70
2023/04/12 06:01:03;;;;;;;6.97;3.70;;;9.20;1.00;;;;;;5019165;28;20457;-73
2023/04/12 06:03:29;;;;;;;9.00;4.10;;;9.20;2.50;;;;;;5024519;28;20183;-73
2023/04/12 06:05:55;;;;;;;4.70;3.30;;;9.50;3.70;;;;;;5024304;28;20486;-73
2023/04/12 06:08:21;;;;;;;5.73;2.90;;;9.40;1.60;;;;;;5027205;28;20280;-72
2023/04/12 06:10:46;;;;;;;6.90;3.40;;;9.30;1.00;;;;;;5047595;22;20229;-72
2023/04/12 06:13:12;;;;;;;10.40;3.87;;;9.40;1.60;;;;;;5008074;28;20193;-72
2023/04/12 06:15:37;;;;;;;5.57;3.63;;;9.40;1.00;;;;;;5057142;22;20639;-71
2023/04/12 06:18:03;;;;;;;7.17;3.60;;;9.40;1.00;;;;;;5037998;22;20241;-72
2023/04/12 06:20:29;;;;;;;7.43;4.30;;;9.40;1.00;;;;;;5011294;28;20217;-73
2023/04/12 06:22:54;;;;;;;8.33;3.57;;;9.40;1.30;;;;;;5006916;28;20292;-73
2023/04/12 06:25:21;;;;;;;6.10;4.10;;;9.40;1.00;;;;;;5007989;28;20656;-73
2023/04/12 06:27:47;;;;;;;5.97;4.30;;;9.40;1.60;;;;;;5014075;28;20269;-72
2023/04/12 06:30:12;;;;;;;6.10;3.50;;;9.40;1.00;;;;;;5016444;28;21019;-73
2023/04/12 06:32:38;;;;;;;6.43;3.97;;;9.40;1.00;;;;;;5015214;28;20703;-73
2023/04/12 06:42:50;;;;;;;6.70;3.90;;;9.60;1.00;;;;;;5566746;22;20469;-73
2023/04/12 06:50:27;;;;;;;11.10;5.23;;;9.80;1.00;;;;;;5121178;22;20235;-72
2023/04/12 06:57:56;;;;;;;6.37;3.70;;;9.90;1.00;;;;;;4973083;28;20471;-73
2023/04/12 07:00:22;;;;;;;10.43;5.13;;;9.90;1.00;;;;;;5265353;22;20868;-75
2023/04/12 07:02:47;;;;;;;5.43;3.80;;;9.90;1.00;;;;;;5024013;28;20194;-73
2023/04/12 07:10:17;;;;;;;7.60;3.17;;;9.90;1.00;;;;;;5117421;22;20484;-74
2023/04/12 07:12:43;;;;;;;5.80;3.20;;;9.90;1.00;;;;;;5047592;22;20963;-73
2023/04/12 07:15:10;;;;;;;7.63;3.30;;;9.90;1.00;;;;;;5134978;22;20234;-74
2023/04/12 07:17:36;;;;;;;4.30;2.83;;;9.90;1.00;;;;;;5045236;22;20296;-74
2023/04/12 07:20:02;;;;;;;4.83;2.63;;;9.90;1.00;;;;;;5013641;22;21007;-73
2023/04/12 07:22:28;;;;;;;6.50;2.57;;;10.00;1.00;;;;;;5022170;22;20488;-74
2023/04/12 07:24:54;;;;;;;2.63;2.40;;;10.00;1.00;;;;;;5031419;28;20424;-74
2023/04/12 07:27:19;;;;;;;4.57;2.67;;;9.90;1.00;;;;;;5031008;28;20285;-73
2023/04/12 07:29:45;;;;;;;3.80;2.67;;;10.00;1.00;;;;;;5131623;22;20786;-70
2023/04/12 07:32:11;;;;;;;4.73;2.40;;;10.10;1.00;;;;;;5134708;22;20248;-73
2023/04/12 07:37:12;;;;;;;5.50;3.33;;;10.40;1.00;;;;;;5261948;22;20218;-74
2023/04/12 07:39:39;;;;;;;3.93;2.53;;;10.40;1.00;;;;;;5173130;22;20505;-73
2023/04/12 07:42:05;;;;;;;7.60;2.47;;;10.40;1.00;;;;;;4987337;28;20438;-72
2023/04/12 07:44:32;;;;;;;10.43;4.00;;;10.50;1.00;;;;;;5021441;22;20486;-73
2023/04/12 07:46:58;;;;;;;2.60;2.23;;;10.50;1.00;;;;;;4989715;28;20449;-74
2023/04/12 07:49:23;;;;;;;5.07;2.33;;;10.50;1.00;;;;;;4995593;28;20564;-73
2023/04/12 07:59:30;;;;;;;4.70;2.43;;;10.70;3.40;;;;;;5301403;22;20487;-71
2023/04/12 08:01:55;;;;;;;3.67;2.40;;;10.70;1.00;;;;;;5041005;22;20507;-71
2023/04/12 08:04:21;;;;;;;2.60;2.10;;;10.90;1.00;;;;;;5008857;28;20429;-71
2023/04/12 08:06:47;;;;;;;4.20;2.17;;;11.00;1.00;;;;;;4986283;28;20179;-72
2023/04/12 08:09:12;;;;;;;6.97;2.27;;;11.10;1.00;;;;;;5002175;28;20926;-69
2023/04/12 08:11:38;;;;;;;3.13;2.50;;;11.40;1.00;;;;;;4987752;28;20203;-71
2023/04/12 08:14:04;;;;;;;5.17;2.50;;;11.20;1.00;;;;;;5006915;28;20632;-74
2023/04/12 08:16:31;;;;;;;2.93;2.43;;;11.20;1.00;;;;;;4983830;28;20571;-75
2023/04/12 08:18:57;;;;;;;3.73;2.20;;;11.10;1.00;;;;;;4988303;28;20528;-75
2023/04/12 08:21:22;;;;;;;4.27;2.53;;;11.10;1.00;;;;;;4990448;28;20521;-75
2023/04/12 08:23:49;;;;;;;14.37;4.20;;;10.90;1.00;;;;;;5448301;22;20193;-74
2023/04/12 08:28:43;;;;;;;4.97;2.80;;;10.90;1.00;;;;;;4973728;28;20984;-73
2023/04/12 08:31:10;;;;;;;4.43;2.67;;;11.10;1.00;;;;;;5039236;22;20479;-74
2023/04/12 08:33:35;;;;;;;3.60;2.40;;;11.20;1.00;;;;;;5028153;28;20190;-73
2023/04/12 08:38:38;;;;;;;6.30;2.37;;;12.00;1.00;;;;;;5176660;22;20224;-72
2023/04/12 08:41:04;;;;;;;2.50;2.30;;;12.00;1.00;;;;;;5029856;28;20482;-73
2023/04/12 08:43:32;;;;;;;5.03;2.77;;;12.30;1.00;;;;;;5012261;22;20537;-73
2023/04/12 08:45:59;;;;;;;5.27;3.60;;;13.00;1.00;;;;;;5777522;22;20443;-73
2023/04/12 08:48:26;;;;;;;5.57;2.73;;;;;;;;;;5332349;22;20610;-72
2023/04/12 08:50:52;;;;;;;4.10;2.57;;;14.90;1.00;;;;;;5009369;28;21128;-73
2023/04/12 08:53:17;;;;;;;4.73;2.30;;;12.70;1.00;;;;;;5022035;28;20509;-73
2023/04/12 09:00:57;;;;;;;5.57;2.20;;;12.20;1.00;;;;;;5262892;22;20475;-75
2023/04/12 09:03:23;;;;;;;5.80;2.33;;;12.30;1.00;;;;;;5071807;22;21013;-74
2023/04/12 09:05:48;;;;;;;3.70;2.30;;;12.50;1.00;;;;;;5058952;22;20568;-74
2023/04/12 09:08:15;;;;;;;3.40;2.23;;;12.40;1.00;;;;;;5113879;22;20239;-73
2023/04/12 09:10:41;;;;;;;9.30;3.03;;;12.30;1.00;;;;;;5174648;22;20291;-73
2023/04/12 09:13:11;;;;;;;7.10;2.97;;;12.20;1.00;;;;;;5147559;22;20584;-73
2023/04/12 09:15:47;;;;;;;3.87;2.70;;;12.30;1.00;;;;;;5027590;28;20221;-71
2023/04/12 09:20:45;;;;;;;4.30;2.23;;;12.40;1.00;;;;;;5055228;22;20477;-73
2023/04/12 09:23:25;;;;;;;5.50;2.27;;;12.50;1.00;;;;;;5016199;28;20468;-73
2023/04/12 09:25:51;;;;;;;2.83;2.40;;;12.50;1.00;;;;;;5010284;28;20206;-73
2023/04/12 09:28:27;;;;;;;3.60;2.40;;;12.50;1.00;;;;;;5007704;28;20446;-70
2023/04/12 09:30:55;;;;;;;4.67;2.60;;;12.40;1.00;;;;;;5059441;22;20492;-73
2023/04/12 09:33:23;;;;;;;5.77;2.20;;;12.30;1.00;;;;;;5211662;22;20506;-73
2023/04/12 09:35:49;;;;;;;4.60;2.40;;;12.30;1.00;;;;;;5093340;22;20654;-74
2023/04/12 09:38:14;;;;;;;9.70;3.60;;;12.40;1.00;;;;;;5127477;22;20570;-73
2023/04/12 09:40:40;;;;;;;4.73;2.73;;;12.30;1.00;;;;;;5019905;28;20199;-74
2023/04/12 09:43:07;;;;;;;8.13;2.87;;;12.30;1.00;;;;;;5010372;22;20239;-75
2023/04/12 09:45:39;;;;;;;8.90;3.20;;;12.60;1.00;;;;;;5122190;22;20325;-73
2023/04/12 09:48:20;;;;;;;6.93;2.67;;;12.70;1.00;;;;;;4995972;28;20924;-73
2023/04/12 09:50:45;;;;;;;3.57;2.73;;;12.70;1.00;;;;;;4983282;28;20453;-74
2023/04/12 09:53:17;;;;;;;6.60;3.00;;;12.60;1.00;;;;;;4991061;28;20808;-74
2023/04/12 09:55:49;;;;;;;4.60;2.40;;;12.60;1.00;;;;;;5086026;22;20218;-73
2023/04/12 09:58:18;;;;;;;5.23;2.90;;;12.70;1.00;;;;;;5076838;22;20496;-74
2023/04/12 10:00:45;;;;;;;4.77;3.00;;;12.70;1.00;;;;;;5013457;28;20933;-73
2023/04/12 10:03:11;;;;;;;4.30;2.77;;;12.80;1.00;;;;;;5017126;28;20799;-75
2023/04/12 10:05:39;;;;;;;6.43;2.70;;;12.60;1.00;;;;;;5015819;28;20429;-73
2023/04/12 10:08:23;;;;;;;5.37;2.93;;;12.80;1.00;;;;;;5009314;28;20237;-72
2023/04/12 10:10:50;;;;;;;4.67;2.87;;;13.00;1.00;;;;;;4990552;28;20465;-73
2023/04/12 10:13:16;;;;;;;6.57;2.70;;;13.30;1.00;;;;;;4991309;28;20532;-71
2023/04/12 10:15:44;;;;;;;4.57;2.70;;;13.20;1.00;;;;;;4994040;28;20481;-73
2023/04/12 10:18:13;;;;;;;12.13;4.47;;;13.10;1.00;;;;;;5606652;22;20475;-74
2023/04/12 10:20:42;;;;;;;5.47;2.63;;;13.10;1.00;;;;;;5020279;28;20453;-73
2023/04/12 10:23:09;;;;;;;4.63;2.90;;;13.00;1.00;;;;;;5007136;28;20433;-73
2023/04/12 10:25:38;;;;;;;4.80;3.07;;;13.00;1.00;;;;;;5038189;22;20497;-73
2023/04/12 10:28:18;;;;;;;4.93;3.00;;;13.10;1.00;;;;;;5011069;28;20425;-73
2023/04/12 10:30:46;;;;;;;8.57;2.80;;;13.20;1.00;;;;;;5220534;22;20531;-74
2023/04/12 10:33:13;;;;;;;5.17;2.50;;;13.30;1.00;;;;;;5008061;28;20506;-71
2023/04/12 10:38:15;;;;;;;6.00;2.37;;;13.10;1.00;;;;;;5009326;28;20484;-73
2023/04/12 10:43:25;;;;;;;5.23;2.53;;;13.20;1.00;;;;;;5011523;28;20477;-72
2023/04/12 10:45:51;;;;;;;5.57;2.70;;;13.30;1.00;;;;;;5004160;28;20483;-73
2023/04/12 10:48:30;;;;;;;4.40;2.83;;;13.30;1.00;;;;;;5009415;28;20512;-73
2023/04/12 10:51:24;;;;;;;4.53;2.77;;;13.50;1.00;;;;;;5005688;28;20676;-73
2023/04/12 10:54:15;;;;;;;6.93;2.70;;;13.50;1.00;;;;;;4996209;28;20438;-73
2023/04/12 10:56:43;;;;;;;3.43;2.33;;;15.80;1.00;;;;;;4992239;28;20458;-73
2023/04/12 10:59:10;;;;;;;4.77;2.80;;;13.60;1.00;;;;;;5003212;28;20781;-73
2023/04/12 11:01:37;;;;;;;4.43;2.47;;;13.80;1.00;;;;;;4997019;28;20461;-73
2023/04/12 11:04:14;;;;;;;7.50;2.60;;;14.00;1.00;;;;;;5002897;28;20484;-73
2023/04/12 11:06:52;;;;;;;3.57;2.40;;;14.10;1.00;;;;;;5004880;28;20452;-73
2023/04/12 11:09:33;;;;;;;3.77;2.03;;;14.00;1.00;;;;;;4996950;28;21182;-73
2023/04/12 11:12:04;;;;;;;8.43;2.87;;;13.80;1.00;;;;;;5057879;22;20491;-74
2023/04/12 11:14:46;;;;;;;9.40;3.27;;;13.90;1.00;;;;;;5834723;22;20551;-74
2023/04/12 11:24:58;;;;;;;5.23;1.90;;;14.40;1.00;;;;;;5158950;22;20508;-73
2023/04/12 11:27:25;;;;;;;4.00;2.23;;;14.40;1.00;;;;;;5571920;22;20986;-71
2023/04/12 11:32:29;;;;;;;6.07;2.20;;;14.10;1.00;;;;;;5609933;22;20923;-73
2023/04/12 11:34:57;;;;;;;3.50;2.20;;;14.20;1.00;;;;;;5294299;22;20531;-73
2023/04/12 11:37:23;;;;;;;3.17;2.00;;;14.20;1.00;;;;;;5027403;28;20444;-72
2023/04/12 11:45:00;;;;;;;3.60;1.80;;;14.30;1.00;;;;;;5739371;22;20492;-74
2023/04/12 11:47:26;;;;;;;3.73;1.90;;;14.30;1.00;;;;;;5191432;22;20561;-71
2023/04/12 11:55:06;;;;;;;2.67;1.77;;;14.60;1.00;;;;;;5490397;22;20261;-73
2023/04/12 11:57:32;;;;;;;3.33;1.87;;;14.60;1.00;;;;;;5080917;22;20934;-72
2023/04/12 11:59:59;;;;;;;1.93;1.63;;;14.50;1.00;;;;;;5068721;22;20500;-73
2023/04/12 12:02:25;;;;;;;2.73;1.80;;;14.60;1.00;;;;;;5058120;22;20583;-73
2023/04/12 12:10:03;;;;;;;12.13;3.83;;;15.00;1.00;;;;;;5439848;22;20487;-73
2023/04/12 12:15:04;;;;;;;9.57;2.83;;;15.40;1.00;;;;;;5582219;22;20479;-73
2023/04/12 12:22:34;;;;;;;10.93;3.20;;;16.40;1.00;;;;;;5624158;22;20522;-73
2023/04/12 12:25:00;;;;;;;2.00;1.50;;;16.50;1.00;;;;;;5014592;22;20505;-72
2023/04/12 12:40:31;;;;;;;3.20;1.60;;;15.10;1.00;;;;;;5038073;22;20808;-73
2023/04/12 12:42:57;;;;;;;2.50;1.60;;;15.00;1.00;;;;;;5200164;22;20495;-74
2023/04/12 12:45:25;;;;;;;2.00;1.50;;;14.80;1.00;;;;;;5031418;28;20938;-75
2023/04/12 12:47:58;;;;;;;2.77;2.00;;;14.70;1.00;;;;;;5028114;28;20194;-74
2023/04/12 12:55:34;;;;;;;3.10;2.00;;;14.50;1.00;;;;;;5075989;22;1264146;-72
2023/04/12 12:58:00;;;;;;;13.70;3.23;;;14.70;1.00;;;;;;5021449;22;20211;-74
2023/04/12 13:00:27;;;;;;;2.40;1.90;;;14.70;1.00;;;;;;5104898;22;20263;-73
2023/04/12 13:07:57;;;;;;;2.97;2.13;;;15.20;1.00;;;;;;5574032;22;20487;-74
2023/04/12 13:10:22;;;;;;;1.60;1.50;;;15.30;1.00;;;;;;5119373;22;21026;-74
2023/04/12 13:12:48;;;;;;;3.00;1.80;;;15.40;1.00;;;;;;5014445;28;20241;-74
2023/04/12 13:17:55;;;;;;;3.67;2.40;;;15.60;1.00;;;;;;5016360;28;20214;-74
2023/04/12 13:22:57;;;;;;;2.73;2.10;;;16.00;1.00;;;;;;5022616;22;20921;-71
2023/04/12 13:25:22;;;;;;;2.17;1.73;;;16.00;1.00;;;;;;5029096;28;20444;-71
2023/04/12 13:27:49;;;;;;;5.43;1.93;;;15.80;1.00;;;;;;5031166;28;20197;-71
2023/04/12 13:30:14;;;;;;;4.97;3.33;;;15.30;1.00;;;;;;5031323;28;20248;-71
2023/04/12 13:32:40;;;;;;;3.10;2.07;;;15.00;1.00;;;;;;5037002;28;20440;-72
2023/04/12 13:35:06;;;;;;;2.20;1.73;;;14.20;1.00;;;;;;5075279;22;20223;-75
2023/04/12 13:37:33;;;;;;;4.20;1.90;;;14.10;1.00;;;;;;4990220;28;20750;-75
2023/04/12 13:39:58;;;;;;;3.43;2.00;;;13.90;1.00;;;;;;4987145;28;20187;-74
2023/04/12 13:42:24;;;;;;;2.63;1.90;;;13.80;1.00;;;;;;4984066;28;20813;-74
2023/04/12 13:44:49;;;;;;;12.33;5.50;;;13.60;1.00;;;;;;4998054;28;20245;-74
2023/04/12 13:47:16;;;;;;;8.63;4.07;;;13.50;1.00;;;;;;4990481;28;20201;-74
2023/04/12 13:49:42;;;;;;;14.20;6.77;;;13.60;1.00;;;;;;4998518;28;20538;-75
2023/04/12 13:52:08;;;;;;;4.67;2.83;;;13.40;1.00;;;;;;4986731;28;20438;-75
2023/04/12 13:54:33;;;;;;;7.23;3.67;;;13.40;1.00;;;;;;4990364;28;20285;-75
2023/04/12 13:56:59;;;;;;;6.37;2.73;;;13.40;1.00;;;;;;4989952;28;20199;-75
2023/04/12 13:59:25;;;;;;;6.47;2.20;;;13.60;1.00;;;;;;4990095;28;20183;-75
2023/04/12 14:01:51;;;;;;;4.20;2.23;;;13.90;1.00;;;;;;4988231;28;20210;-75
2023/04/12 14:04:17;;;;;;;2.97;2.43;;;;;;;;;;5000254;28;20956;-78
2023/04/12 14:06:44;;;;;;;5.10;2.10;;;13.50;1.00;;;;;;4990058;28;20666;-75
2023/04/12 14:09:23;;;;;;;4.57;2.90;;;13.30;1.00;;;;;;4987875;28;20438;-75
2023/04/12 14:11:48;;;;;;;3.70;2.20;;;13.10;1.00;;;;;;4989007;28;20580;-74
2023/04/12 14:14:14;;;;;;;3.83;1.93;;;13.10;3.50;;;;;;4989254;28;20541;-74
2023/04/12 14:16:40;;;;;;;3.83;2.63;;;13.10;1.40;;;;;;4986110;28;20211;-75
2023/04/12 14:19:05;;;;;;;7.10;1.90;;;13.00;6.80;;;;;;4996398;28;20192;-74
2023/04/12 14:21:31;;;;;;;3.23;1.77;;;12.80;1.00;;;;;;5005959;28;20176;-75
2023/04/12 14:23:56;;;;;;;4.73;3.03;;;12.70;2.10;;;;;;4988264;28;20573;-75
2023/04/12 14:26:22;;;;;;;4.00;2.40;;;12.50;1.00;;;;;;4988230;28;20301;-75
2023/04/12 14:28:48;;;;;;;6.90;2.37;;;;;;;;;;4989529;28;20191;-75
2023/04/12 14:31:15;;;;;;;3.50;2.30;;;12.20;1.00;;;;;;4992048;28;20646;-75
2023/04/12 14:33:41;;;;;;;5.20;3.30;;;12.20;1.00;;;;;;4988249;28;20500;-75
2023/04/12 14:36:07;;;;;;;8.30;3.07;;;12.10;8.80;;;;;;4988899;28;20853;-75
2023/04/12 14:38:33;;;;;;;9.03;2.97;;;12.00;7.80;;;;;;4987167;28;20183;-75
2023/04/12 14:40:59;;;;;;;6.93;2.63;;;11.90;13.40;;;;;;4987080;28;20809;-76
2023/04/12 14:43:25;;;;;;;4.47;2.83;;;;;;;;;;4985659;28;20706;-75
2023/04/12 14:45:51;;;;;;;3.17;2.10;;;11.80;9.40;;;;;;4988308;28;20454;-74
2023/04/12 14:48:17;;;;;;;3.57;2.10;;;11.80;14.70;;;;;;4986881;28;20418;-74
2023/04/12 14:50:43;;;;;;;2.63;1.63;;;11.80;19.30;;;;;;4986687;28;20184;-73
2023/04/12 14:53:08;;;;;;;14.00;7.23;;;11.80;19.80;;;;;;4986295;28;20524;-73
2023/04/12 14:55:34;;;;;;;22.70;14.10;;;11.80;14.40;;;;;;4988865;28;20215;-72
2023/04/12 14:57:59;;;;;;;6.03;4.13;;;11.80;16.90;;;;;;4987802;28;20187;-73
2023/04/12 15:00:28;;;;;;;3.20;1.70;;;11.90;10.10;;;;;;4987937;28;20180;-73